Time;durP1;ratioP1;P1;durP2;ratioP2;P2;SDS_P1;SDS_P2;PMS_P1;PMS_P2;Temp;Humidity;BMP_temperature;BMP_pressure;BME280_temperature;BME280_humidity;BME280_pressure;Samples;Min_cycle;Max_cycle;Signal;HPM_P1;HPM_P2
2022/03/20 00:00:26;;;;;;;4.63;2.00;;;;;;;9.19;40.77;102333.56;2087568;28;20131;-83
2022/03/20 00:01:51;;;;;;;3.10;1.92;;;;;;;9.18;40.34;102326.50;2093529;28;20068;-82
2022/03/20 00:03:14;;;;;;;3.58;1.80;;;;;;;9.16;40.03;102320.25;2089125;28;20051;-81
2022/03/20 00:04:36;;;;;;;4.38;2.15;;;;;;;9.16;39.91;102325.53;2084531;28;20136;-81
2022/03/20 00:05:59;;;;;;;3.13;1.50;;;;;;;9.15;39.61;102323.72;2086947;28;20075;-82
2022/03/20 00:07:21;;;;;;;4.30;1.35;;;;;;;9.13;39.72;102328.91;2086214;28;20052;-81
2022/03/20 00:08:43;;;;;;;5.60;2.35;;;;;;;9.12;39.42;102321.84;2088533;28;20037;-81
2022/03/20 00:10:06;;;;;;;3.53;1.55;;;;;;;9.14;39.60;102327.19;2109150;28;20081;-81
2022/03/20 00:11:31;;;;;;;4.25;1.63;;;;;;;9.15;39.88;102319.34;2091886;28;20124;-81
2022/03/20 00:12:52;;;;;;;5.72;2.28;;;;;;;9.15;39.92;102319.34;2085131;28;20056;-82
2022/03/20 00:14:15;;;;;;;2.25;1.60;;;;;;;9.15;39.57;102321.09;2092392;28;20056;-82
2022/03/20 00:15:40;;;;;;;3.15;1.45;;;;;;;9.14;39.27;102312.28;2084139;28;20041;-81
2022/03/20 00:17:06;;;;;;;6.65;2.25;;;;;;;9.14;39.06;102324.53;2101799;28;20056;-81
2022/03/20 00:18:29;;;;;;;3.92;1.52;;;;;;;9.12;39.07;102310.44;2091837;28;20087;-80
2022/03/20 00:19:52;;;;;;;2.45;1.27;;;;;;;9.10;38.93;102318.25;2086755;28;20076;-80
2022/03/20 00:21:15;;;;;;;3.20;1.50;;;;;;;9.11;39.48;102305.97;2093402;28;20051;-80
2022/03/20 00:22:37;;;;;;;4.57;2.20;;;;;;;9.10;39.63;102314.72;2101333;28;20054;-80
2022/03/20 00:24:00;;;;;;;4.47;1.85;;;;;;;9.09;39.79;102318.19;2085401;28;20037;-80
2022/03/20 00:25:22;;;;;;;3.88;1.85;;;;;;;9.10;39.59;102325.25;2098432;28;20087;-80
2022/03/20 00:26:44;;;;;;;7.13;2.25;;;;;;;9.11;39.94;102321.78;2094676;28;20067;-80
2022/03/20 00:28:07;;;;;;;5.78;2.90;;;;;;;9.09;39.63;102319.06;2084331;28;20041;-80
2022/03/20 00:29:30;;;;;;;6.70;2.50;;;;;;;9.09;39.50;102318.19;2096748;28;20504;-80
2022/03/20 00:30:54;;;;;;;2.67;1.23;;;;;;;9.11;39.73;102327.06;2089648;28;20128;-80
2022/03/20 00:32:19;;;;;;;2.90;1.50;;;;;;;9.11;39.72;102319.16;2086953;28;20053;-81
2022/03/20 00:33:42;;;;;;;3.88;1.90;;;;;;;9.09;39.79;102315.53;2093235;28;20067;-80
2022/03/20 00:35:04;;;;;;;5.95;2.85;;;;;;;9.11;40.05;102313.88;2082244;28;20053;-80
2022/03/20 00:36:27;;;;;;;6.18;2.13;;;;;;;9.13;40.16;102313.09;2079774;28;20500;-80
2022/03/20 00:37:48;;;;;;;6.18;2.33;;;;;;;9.14;40.03;102312.28;2081836;28;20079;-80
2022/03/20 00:39:13;;;;;;;15.68;3.25;;;;;;;9.16;40.49;102317.63;2084732;28;20041;-80
2022/03/20 00:40:36;;;;;;;2.08;1.35;;;;;;;9.14;40.62;102311.38;2087558;28;20049;-79
2022/03/20 00:41:59;;;;;;;2.53;1.48;;;;;;;9.11;41.32;102321.78;2087103;28;20048;-80
2022/03/20 00:43:22;;;;;;;4.38;1.85;;;;;;;9.12;41.11;102310.44;2102897;28;20044;-80
2022/03/20 00:44:43;;;;;;;6.30;2.85;;;;;;;9.13;41.03;102292.03;2089847;28;20436;-80
2022/03/20 00:46:06;;;;;;;4.85;1.67;;;;;;;9.14;40.78;102314.00;2103296;28;20496;-80
2022/03/20 00:47:29;;;;;;;2.35;1.42;;;;;;;9.12;40.49;102294.63;2075451;28;20541;-80
2022/03/20 00:48:51;;;;;;;4.85;1.73;;;;;;;9.09;40.91;102316.44;2077377;28;20134;-80
2022/03/20 00:50:14;;;;;;;2.10;1.17;;;;;;;9.07;40.92;102310.19;2081681;28;20505;-80
2022/03/20 00:51:36;;;;;;;6.85;1.98;;;;;;;9.09;40.84;102302.38;2092000;28;20097;-79
2022/03/20 00:52:58;;;;;;;3.53;1.52;;;;;;;9.08;40.44;102304.09;2087082;28;20566;-80
2022/03/20 00:54:20;;;;;;;6.38;2.20;;;;;;;9.09;40.19;102305.00;2094766;28;20055;-80
2022/03/20 00:55:43;;;;;;;6.55;1.60;;;;;;;9.06;39.93;102303.13;2105233;28;20066;-79
2022/03/20 00:57:05;;;;;;;2.65;1.50;;;;;;;9.05;39.61;102308.34;2086840;28;20109;-79
2022/03/20 00:58:27;;;;;;;3.03;2.25;;;;;;;9.02;39.64;102308.19;2091291;28;20093;-80
2022/03/20 00:59:49;;;;;;;1.63;1.20;;;;;;;9.00;39.89;102302.84;2094678;28;20052;-79
2022/03/20 01:01:13;;;;;;;3.70;1.67;;;;;;;9.00;39.73;102317.72;2100332;28;20047;-79
2022/03/20 01:02:41;;;;;;;3.38;1.77;;;;;;;9.01;39.95;102319.53;2095561;28;20396;-80
2022/03/20 01:04:03;;;;;;;4.80;1.98;;;;;;;8.98;40.07;102307.16;2102130;28;20400;-79
2022/03/20 01:05:26;;;;;;;3.83;2.10;;;;;;;8.97;39.51;102314.97;2095146;28;20048;-80
2022/03/20 01:06:47;;;;;;;3.55;1.75;;;;;;;8.97;39.45;102317.59;2085506;28;20105;-79
2022/03/20 01:08:10;;;;;;;3.03;1.73;;;;;;;8.94;39.88;102307.81;2088166;28;20075;-79
2022/03/20 01:09:31;;;;;;;2.65;1.17;;;;;;;8.93;40.16;102319.19;2086691;28;20663;-80
2022/03/20 01:10:54;;;;;;;4.55;1.88;;;;;;;8.89;39.97;102319.88;2092203;28;20048;-80
2022/03/20 01:12:17;;;;;;;4.07;1.73;;;;;;;8.87;39.71;102310.09;2083711;28;20416;-80
2022/03/20 01:13:39;;;;;;;3.47;1.80;;;;;;;8.88;39.49;102322.44;2088574;28;20151;-80
2022/03/20 01:15:02;;;;;;;3.03;1.45;;;;;;;8.88;39.70;102312.78;2086905;28;20543;-79
2022/03/20 01:16:24;;;;;;;5.60;2.28;;;;;;;8.92;39.29;102321.75;2086979;28;20055;-80
2022/03/20 01:17:48;;;;;;;6.30;1.83;;;;;;;8.92;39.43;102322.66;2075175;28;20042;-80
2022/03/20 01:19:10;;;;;;;5.43;2.33;;;;;;;8.95;39.28;102325.44;2081990;28;20107;-79
2022/03/20 01:20:33;;;;;;;4.75;2.20;;;;;;;8.96;39.21;102327.25;2078464;28;20049;-80
2022/03/20 01:21:58;;;;;;;3.40;1.35;;;;;;;8.99;39.23;102319.47;2094468;28;20094;-79
2022/03/20 01:23:22;;;;;;;5.13;2.47;;;;;;;8.98;39.35;102322.94;2078959;28;20049;-81
2022/03/20 01:24:43;;;;;;;4.63;1.35;;;;;;;8.97;39.55;102323.78;2082349;28;20397;-84
2022/03/20 01:26:06;;;;;;;3.88;1.63;;;;;;;8.99;39.42;102326.50;2088390;28;20052;-83
2022/03/20 01:27:28;;;;;;;4.72;1.60;;;;;;;8.97;38.96;102330.78;2100936;28;20079;-82
2022/03/20 01:28:51;;;;;;;5.80;1.42;;;;;;;8.93;38.60;102331.44;2095081;28;20633;-82
2022/03/20 01:30:13;;;;;;;5.28;1.88;;;;;;;8.90;38.87;102316.41;2076962;28;20565;-82
2022/03/20 01:31:36;;;;;;;3.05;1.83;;;;;;;8.90;38.62;102310.25;2083805;28;20684;-82
2022/03/20 01:33:01;;;;;;;3.05;1.45;;;;;;;8.89;38.47;102308.44;2093325;28;20040;-84
2022/03/20 01:34:23;;;;;;;2.60;1.50;;;;;;;8.89;38.44;102313.69;2091319;28;20396;-82
2022/03/20 01:35:45;;;;;;;4.30;1.92;;;;;;;8.88;38.85;102320.69;2083638;28;20068;-83
2022/03/20 01:37:09;;;;;;;3.15;1.70;;;;;;;8.88;39.03;102314.53;2098138;28;20119;-84
2022/03/20 01:38:31;;;;;;;6.13;1.63;;;;;;;8.86;39.30;102305.66;2081128;28;20046;-81
2022/03/20 01:39:55;;;;;;;4.28;2.22;;;;;;;8.85;39.22;102310.03;2081524;28;20152;-81
2022/03/20 01:41:17;;;;;;;2.75;1.80;;;;;;;8.88;39.51;102311.88;2087100;28;20049;-82
2022/03/20 01:42:40;;;;;;;3.97;1.40;;;;;;;8.87;39.50;102310.09;2079519;28;20049;-81
2022/03/20 01:44:04;;;;;;;6.22;1.58;;;;;;;8.88;39.35;102317.16;2091854;28;20136;-82
2022/03/20 01:45:27;;;;;;;3.60;1.95;;;;;;;8.89;39.46;102316.34;2085273;28;20037;-82
2022/03/20 01:46:49;;;;;;;2.97;1.30;;;;;;;8.90;39.30;102310.25;2104951;28;20074;-82
2022/03/20 01:48:13;;;;;;;4.60;1.75;;;;;;;8.93;39.23;102294.56;2091374;28;20053;-82
2022/03/20 01:49:35;;;;;;;3.38;1.75;;;;;;;8.92;38.52;102303.31;2080425;28;20048;-81
2022/03/20 01:50:57;;;;;;;3.70;1.75;;;;;;;8.92;38.54;102309.50;2084800;28;20061;-81
2022/03/20 01:52:24;;;;;;;5.43;2.20;;;;;;;8.92;38.19;102319.13;2084076;28;20249;-82
2022/03/20 01:53:48;;;;;;;2.75;1.48;;;;;;;8.92;37.96;102311.22;2109255;28;20486;-82
2022/03/20 01:55:09;;;;;;;4.57;2.03;;;;;;;8.89;38.11;102321.59;2092818;28;20052;-82
2022/03/20 01:56:33;;;;;;;2.45;0.90;;;;;;;8.87;38.53;102325.88;2086265;28;20037;-83
2022/03/20 01:57:56;;;;;;;2.33;1.35;;;;;;;8.85;39.01;102306.50;2097576;28;20048;-83
2022/03/20 01:59:20;;;;;;;4.90;2.00;;;;;;;8.84;38.78;102315.22;2080941;28;20053;-83
2022/03/20 02:00:41;;;;;;;3.13;1.42;;;;;;;8.85;38.86;102314.41;2089389;28;20056;-82
2022/03/20 02:02:04;;;;;;;3.85;1.73;;;;;;;8.83;38.58;102300.25;2096457;28;20035;-82
2022/03/20 02:03:28;;;;;;;3.47;2.08;;;;;;;8.82;38.67;102308.97;2090459;28;20528;-85
2022/03/20 02:04:51;;;;;;;3.35;1.95;;;;;;;8.78;38.90;102315.84;2091075;28;20033;-85
2022/03/20 02:06:14;;;;;;;3.10;1.75;;;;;;;8.78;39.05;102310.56;2100722;28;20059;-85
2022/03/20 02:07:38;;;;;;;3.95;1.83;;;;;;;8.76;39.11;102318.38;2098092;28;20086;-85
2022/03/20 02:09:01;;;;;;;3.17;1.25;;;;;;;8.75;39.41;102315.69;2103290;28;20096;-84
2022/03/20 02:10:35;;;;;;;2.90;1.58;;;;;;;8.73;39.21;102307.69;2085504;28;20048;-84
2022/03/20 02:12:00;;;;;;;2.03;1.35;;;;;;;8.72;39.37;102307.66;2102921;28;20052;-86
2022/03/20 02:13:23;;;;;;;5.22;1.80;;;;;;;8.68;39.08;102311.84;2086244;28;20072;-85
2022/03/20 02:14:46;;;;;;;5.25;1.33;;;;;;;8.69;39.05;102316.28;2091190;28;20044;-84
2022/03/20 02:16:09;;;;;;;4.93;1.52;;;;;;;8.69;39.18;102316.28;2110357;28;20083;-85
2022/03/20 02:17:32;;;;;;;5.18;1.35;;;;;;;8.69;39.60;102312.75;2091561;28;20053;-87
2022/03/20 02:18:56;;;;;;;2.35;1.02;;;;;;;8.69;39.74;102316.28;2094525;28;20047;-84
2022/03/20 02:20:20;;;;;;;3.35;1.50;;;;;;;8.72;39.91;102315.53;2091179;28;20036;-85
2022/03/20 02:21:46;;;;;;;5.10;1.80;;;;;;;8.76;39.56;102321.03;2084624;28;20174;-85
2022/03/20 02:23:10;;;;;;;4.88;1.40;;;;;;;8.74;38.84;102313.88;2099479;28;20549;-85
2022/03/20 02:24:34;;;;;;;3.78;1.52;;;;;;;8.73;38.79;102319.94;2088315;28;20560;-86
2022/03/20 02:25:56;;;;;;;3.20;1.55;;;;;;;8.71;38.69;102319.00;2078391;28;20498;-82
2022/03/20 02:27:19;;;;;;;3.60;1.35;;;;;;;8.69;38.54;102324.19;2084059;28;20106;-82
2022/03/20 02:28:42;;;;;;;1.88;1.08;;;;;;;8.66;38.32;102323.16;2078309;28;20049;-82
2022/03/20 02:30:12;;;;;;;2.78;1.40;;;;;;;8.66;38.19;102317.88;2083004;28;20075;-82
2022/03/20 02:31:35;;;;;;;2.63;1.90;;;;;;;8.66;38.13;102312.63;2103821;28;20369;-82
2022/03/20 02:32:58;;;;;;;2.95;1.73;;;;;;;8.64;37.84;102303.75;2086175;28;20111;-82
2022/03/20 02:34:19;;;;;;;2.90;1.73;;;;;;;8.63;37.48;102321.25;2084460;28;20389;-82
2022/03/20 02:35:42;;;;;;;2.63;1.88;;;;;;;8.61;37.43;102317.66;2088499;28;20175;-82
2022/03/20 02:37:06;;;;;;;2.30;1.00;;;;;;;8.63;37.28;102320.34;2078200;28;20056;-82
2022/03/20 02:38:29;;;;;;;4.18;1.40;;;;;;;8.59;36.91;102316.69;2102299;28;20044;-82
2022/03/20 02:39:55;;;;;;;2.90;1.27;;;;;;;8.61;37.09;102317.66;2092298;28;20489;-82
2022/03/20 02:41:18;;;;;;;4.05;1.10;;;;;;;8.60;37.12;102320.22;2087018;28;20207;-82
2022/03/20 02:42:44;;;;;;;7.50;2.17;;;;;;;8.60;37.14;102321.09;2094821;28;20045;-83
2022/03/20 02:44:06;;;;;;;3.17;1.42;;;;;;;8.61;37.59;102320.28;2103198;28;20056;-82
2022/03/20 02:45:30;;;;;;;2.03;1.27;;;;;;;8.62;37.78;102324.72;2081705;28;20057;-82
2022/03/20 02:46:52;;;;;;;2.00;1.30;;;;;;;8.58;38.04;102325.41;2084089;28;20053;-83
2022/03/20 02:48:15;;;;;;;2.47;1.17;;;;;;;8.54;38.63;102325.16;2083489;28;20132;-82
2022/03/20 02:49:37;;;;;;;2.33;1.27;;;;;;;8.52;39.04;102322.47;2083976;28;20041;-82
2022/03/20 02:50:59;;;;;;;6.10;1.67;;;;;;;8.52;39.44;102314.59;2093927;28;20050;-83
2022/03/20 02:52:24;;;;;;;7.15;1.60;;;;;;;8.51;39.09;102320.66;2093835;28;20052;-82
2022/03/20 02:53:46;;;;;;;3.78;1.00;;;;;;;8.48;38.48;102312.59;2095129;28;20138;-82
2022/03/20 02:55:09;;;;;;;2.70;1.25;;;;;;;8.48;38.92;102317.88;2091329;28;20048;-82
2022/03/20 02:56:32;;;;;;;2.83;1.55;;;;;;;8.47;38.64;102312.56;2082935;28;20048;-83
2022/03/20 02:57:56;;;;;;;3.50;1.90;;;;;;;8.50;38.78;102310.06;2099009;28;20065;-82
2022/03/20 02:59:18;;;;;;;2.67;1.30;;;;;;;8.52;38.68;102311.94;2088962;28;20049;-82
2022/03/20 03:00:42;;;;;;;6.82;1.65;;;;;;;8.53;38.57;102311.13;2108329;28;20055;-81
2022/03/20 03:02:04;;;;;;;2.35;1.58;;;;;;;8.54;38.78;102310.28;2083039;28;20140;-82
2022/03/20 03:03:27;;;;;;;5.05;1.50;;;;;;;8.53;38.63;102312.84;2089682;28;20135;-82
2022/03/20 03:04:48;;;;;;;6.63;1.80;;;;;;;8.50;38.73;102312.69;2082977;28;20099;-82
2022/03/20 03:06:11;;;;;;;3.50;1.52;;;;;;;8.44;38.50;102309.75;2105851;28;20097;-82
2022/03/20 03:10:55;;;;;;;5.13;2.30;;;;;;;8.43;38.04;102297.44;2094468;28;20032;-82
2022/03/20 03:10:59;;;;;;;3.15;1.70;;;;;;;8.37;37.71;102305.94;2097072;28;20083;-82
2022/03/20 03:12:22;;;;;;;3.75;2.17;;;;;;;8.39;37.62;102299.03;2092254;28;20048;-81
2022/03/20 03:13:44;;;;;;;6.35;1.40;;;;;;;8.38;38.26;102303.38;2091329;28;20037;-82
2022/03/20 03:15:20;;;;;;;4.75;1.30;;;;;;;8.38;38.38;102298.13;2077985;28;20479;-82
2022/03/20 03:16:42;;;;;;;5.55;1.63;;;;;;;8.37;38.71;102300.66;2096488;28;20550;-82
2022/03/20 03:18:05;;;;;;;4.72;1.42;;;;;;;8.35;38.99;102302.31;2091456;28;20048;-82
2022/03/20 03:19:27;;;;;;;2.47;1.23;;;;;;;8.33;39.46;102304.88;2093073;28;20045;-83
2022/03/20 03:20:50;;;;;;;3.85;1.50;;;;;;;8.32;40.05;102312.69;2105405;28;20044;-81
2022/03/20 03:22:12;;;;;;;3.78;1.52;;;;;;;8.30;40.17;102311.69;2091645;28;20562;-82
2022/03/20 03:23:36;;;;;;;3.03;1.42;;;;;;;8.29;40.30;102304.59;2111122;28;20043;-82
2022/03/20 03:24:57;;;;;;;2.40;1.60;;;;;;;8.30;40.71;102314.31;2095926;28;20044;-81
2022/03/20 03:26:20;;;;;;;5.03;1.10;;;;;;;8.29;41.04;102308.13;2079795;28;20045;-82
2022/03/20 03:27:41;;;;;;;9.25;2.40;;;;;;;8.30;41.42;102309.03;2094337;28;20040;-81
2022/03/20 03:29:05;;;;;;;6.03;2.67;;;;;;;8.31;41.14;102306.53;2090766;28;20052;-82
2022/03/20 03:30:28;;;;;;;3.00;1.48;;;;;;;8.36;40.67;102304.13;2086270;28;20044;-83
2022/03/20 03:31:51;;;;;;;3.33;1.67;;;;;;;8.36;39.81;102306.75;2089664;28;20056;-82
2022/03/20 03:33:15;;;;;;;2.45;1.10;;;;;;;8.32;39.40;102296.91;2091806;28;20049;-81
2022/03/20 03:36:18;;;;;;;4.50;1.90;;;;;;;8.25;39.25;102285.16;2090906;28;20575;-82
2022/03/20 03:37:42;;;;;;;4.10;2.15;;;;;;;8.23;39.74;102312.19;2102912;28;20055;-82
2022/03/20 03:39:07;;;;;;;3.13;1.67;;;;;;;8.23;39.82;102312.19;2083243;28;20447;-82
2022/03/20 03:40:28;;;;;;;4.90;2.00;;;;;;;8.24;39.97;102306.13;2093650;28;20432;-82
2022/03/20 03:41:52;;;;;;;7.07;2.17;;;;;;;8.24;39.90;102298.22;2091377;28;20131;-83
2022/03/20 03:43:15;;;;;;;4.55;1.80;;;;;;;8.22;39.44;102311.28;2100449;28;20594;-82
2022/03/20 03:44:37;;;;;;;3.80;2.33;;;;;;;8.17;39.15;102310.16;2090418;28;20509;-81
2022/03/20 03:45:59;;;;;;;2.35;1.17;;;;;;;8.14;38.95;102307.38;2085922;28;20045;-82
2022/03/20 03:47:21;;;;;;;3.05;1.40;;;;;;;8.11;39.00;102290.53;2077967;28;20444;-82
2022/03/20 03:48:44;;;;;;;3.83;1.92;;;;;;;8.11;39.29;102299.34;2085536;28;20063;-81
2022/03/20 03:50:06;;;;;;;6.03;2.40;;;;;;;8.12;39.26;102302.88;2088529;28;20061;-82
2022/03/20 03:51:29;;;;;;;3.42;1.70;;;;;;;8.14;39.62;102301.22;2090616;28;20139;-81
2022/03/20 03:52:52;;;;;;;4.95;1.15;;;;;;;8.10;39.33;102302.78;2086718;28;20582;-83
2022/03/20 03:54:16;;;;;;;2.85;1.50;;;;;;;8.08;39.35;102311.41;2086381;28;20071;-82
2022/03/20 03:55:39;;;;;;;3.97;1.52;;;;;;;8.04;38.60;102302.47;2078323;28;20046;-81
2022/03/20 03:57:00;;;;;;;3.10;1.50;;;;;;;8.01;38.04;102305.84;2101944;28;20441;-81
2022/03/20 03:58:23;;;;;;;4.03;1.77;;;;;;;8.04;38.32;102298.94;2087034;28;20047;-82
2022/03/20 03:59:44;;;;;;;4.82;1.90;;;;;;;8.07;38.40;102301.75;2084844;28;20067;-82
2022/03/20 04:01:07;;;;;;;1.48;0.95;;;;;;;8.04;38.69;102305.13;2104348;28;20064;-82
2022/03/20 04:02:31;;;;;;;2.58;1.25;;;;;;;8.04;38.69;102306.84;2090096;28;20103;-81
2022/03/20 04:03:53;;;;;;;1.33;0.70;;;;;;;8.01;39.46;102321.63;2085080;28;20053;-82
2022/03/20 04:05:17;;;;;;;7.13;2.33;;;;;;;8.00;39.45;102319.84;2093394;28;20041;-81
2022/03/20 04:06:40;;;;;;;2.55;1.30;;;;;;;8.00;39.58;102309.34;2080374;28;20336;-82
2022/03/20 04:08:03;;;;;;;1.85;1.05;;;;;;;7.98;39.47;102310.06;2092256;28;20044;-81
2022/03/20 04:09:26;;;;;;;3.28;1.70;;;;;;;8.00;39.54;102311.97;2091593;28;20028;-82
2022/03/20 04:10:48;;;;;;;2.00;1.13;;;;;;;7.97;39.49;102314.41;2101150;28;20149;-82
2022/03/20 04:12:11;;;;;;;4.80;1.38;;;;;;;7.96;39.25;102320.50;2104183;28;20436;-82
2022/03/20 04:13:35;;;;;;;4.00;2.00;;;;;;;7.95;39.50;102315.16;2102114;28;20043;-80
2022/03/20 04:15:02;;;;;;;3.50;1.27;;;;;;;7.90;39.61;102314.03;2098708;28;20519;-84
2022/03/20 04:16:25;;;;;;;2.85;1.23;;;;;;;7.85;39.09;102329.56;2092042;28;20073;-82
2022/03/20 04:17:48;;;;;;;3.15;1.25;;;;;;;7.80;38.81;102331.06;2101319;28;20075;-82
2022/03/20 04:19:10;;;;;;;3.55;1.40;;;;;;;7.78;38.71;102326.53;2084380;28;20632;-82
2022/03/20 04:20:34;;;;;;;4.13;1.65;;;;;;;7.78;38.21;102334.44;2093200;28;20037;-82
2022/03/20 04:21:55;;;;;;;3.30;1.30;;;;;;;7.77;38.13;102338.78;2073512;28;20060;-81
2022/03/20 04:24:59;;;;;;;4.10;1.60;;;;;;;7.79;38.61;102312.56;2103041;28;20036;-82
2022/03/20 04:26:21;;;;;;;7.47;1.48;;;;;;;7.78;38.44;102330.06;2089940;28;20409;-81
2022/03/20 04:27:45;;;;;;;4.45;2.35;;;;;;;7.82;38.48;102323.22;2092926;28;20055;-81
2022/03/20 04:29:08;;;;;;;2.63;1.05;;;;;;;7.84;38.96;102330.38;2101496;28;20044;-82
2022/03/20 04:30:34;;;;;;;5.80;2.20;;;;;;;7.87;38.93;102321.78;2094530;28;20037;-82
2022/03/20 04:31:57;;;;;;;4.55;1.92;;;;;;;7.89;40.00;102317.47;2100751;28;20060;-81
2022/03/20 04:33:20;;;;;;;3.50;1.50;;;;;;;7.92;40.02;102329.06;2095329;28;20074;-82
2022/03/20 04:34:43;;;;;;;4.00;1.13;;;;;;;7.96;40.39;102331.00;2088523;28;20041;-82
2022/03/20 04:36:08;;;;;;;2.40;1.20;;;;;;;7.96;40.70;102328.38;2093611;28;20045;-83
2022/03/20 04:37:31;;;;;;;2.05;1.08;;;;;;;8.00;40.94;102324.22;2090303;28;20064;-82
2022/03/20 04:38:54;;;;;;;3.67;1.50;;;;;;;8.02;40.85;102331.31;2091351;28;20033;-82
2022/03/20 04:40:19;;;;;;;3.60;2.25;;;;;;;8.03;40.83;102329.59;2095174;28;20037;-82
2022/03/20 04:41:41;;;;;;;5.53;2.05;;;;;;;8.06;40.97;102332.41;2094593;28;20150;-82
2022/03/20 04:43:04;;;;;;;4.25;1.20;;;;;;;8.06;40.84;102331.50;2087211;28;20044;-83
2022/03/20 04:44:27;;;;;;;5.43;2.55;;;;;;;8.05;40.75;102321.81;2093004;28;20139;-83
2022/03/20 04:45:48;;;;;;;6.07;1.65;;;;;;;8.07;40.33;102310.53;2093500;28;20075;-82
2022/03/20 04:58:50;;;;;;;7.72;4.68;;;;;;;8.22;38.20;102327.06;2097958;28;20075;-82
2022/03/20 05:00:13;;;;;;;7.32;2.40;;;;;;;8.24;38.49;102333.31;2082154;28;20041;-81
2022/03/20 05:01:36;;;;;;;6.47;3.38;;;;;;;8.30;38.79;102324.84;2087106;28;20215;-82
2022/03/20 05:02:59;;;;;;;4.50;1.75;;;;;;;8.33;38.89;102322.41;2095480;28;20098;-82
2022/03/20 05:04:22;;;;;;;4.80;2.05;;;;;;;8.36;39.27;102346.22;2084012;28;20132;-83
2022/03/20 05:05:46;;;;;;;2.72;1.65;;;;;;;8.38;39.52;102328.78;2084370;28;20061;-83
2022/03/20 05:07:08;;;;;;;5.03;2.13;;;;;;;8.42;39.77;102336.00;2084435;28;20082;-83
2022/03/20 05:08:31;;;;;;;2.65;1.80;;;;;;;8.43;39.70;102337.81;2077030;28;20099;-82
2022/03/20 05:13:20;;;;;;;3.78;1.65;;;;;;;8.37;40.38;102334.88;2089508;28;20060;-81
2022/03/20 05:14:42;;;;;;;1.67;0.93;;;;;;;8.35;40.27;102344.41;2100354;28;20060;-83
2022/03/20 05:16:06;;;;;;;3.78;1.70;;;;;;;8.35;40.47;102331.25;2097773;28;20051;-81
2022/03/20 05:17:28;;;;;;;5.45;1.77;;;;;;;8.34;40.15;102332.97;2103789;28;21055;-83
2022/03/20 05:18:51;;;;;;;3.60;2.13;;;;;;;8.34;40.15;102332.97;2092285;28;20044;-82
2022/03/20 05:20:16;;;;;;;3.10;1.70;;;;;;;8.36;40.06;102344.50;2081340;28;20060;-84
2022/03/20 05:21:39;;;;;;;4.78;2.65;;;;;;;8.39;40.28;102341.13;2092377;28;20512;-82
2022/03/20 05:23:02;;;;;;;3.97;1.25;;;;;;;8.44;40.06;102336.06;2092947;28;20051;-83
2022/03/20 05:24:24;;;;;;;4.93;2.17;;;;;;;8.49;40.05;102343.38;2102833;28;20036;-82
2022/03/20 05:25:47;;;;;;;4.03;1.35;;;;;;;8.52;40.01;102335.63;2089411;28;20053;-83
2022/03/20 05:27:10;;;;;;;5.25;2.33;;;;;;;8.56;40.44;102341.94;2085443;28;20088;-82
2022/03/20 05:28:32;;;;;;;6.95;2.80;;;;;;;8.56;40.70;102340.22;2084039;28;20045;-82
2022/03/20 05:29:53;;;;;;;1.80;1.17;;;;;;;8.56;41.20;102345.47;2078957;28;20041;-82
2022/03/20 05:31:16;;;;;;;4.22;1.52;;;;;;;8.52;41.50;102346.16;2085531;28;20047;-81
2022/03/20 05:32:38;;;;;;;4.47;1.42;;;;;;;8.53;41.15;102332.19;2072109;28;20192;-80
2022/03/20 05:34:02;;;;;;;1.95;1.40;;;;;;;8.57;41.04;102341.13;2097989;28;20507;-81
2022/03/20 05:35:25;;;;;;;6.20;1.38;;;;;;;8.58;40.80;102329.78;2081292;28;20041;-81
2022/03/20 05:36:48;;;;;;;5.80;1.60;;;;;;;8.60;40.76;102341.28;2101045;28;20051;-81
2022/03/20 05:38:12;;;;;;;4.13;1.98;;;;;;;8.60;40.66;102338.66;2093328;28;20515;-80
2022/03/20 05:39:33;;;;;;;3.08;1.35;;;;;;;8.60;40.06;102333.38;2088871;28;20053;-82
2022/03/20 05:41:43;;;;;;;2.30;1.20;;;;;;;8.62;39.83;102324.72;2094294;28;20083;-80
2022/03/20 05:42:39;;;;;;;3.45;1.65;;;;;;;8.63;39.59;102330.88;2080191;28;20472;-80
2022/03/20 05:44:01;;;;;;;4.95;1.50;;;;;;;8.66;39.81;102338.94;2083551;28;20404;-79
2022/03/20 05:45:24;;;;;;;4.05;1.15;;;;;;;8.70;40.28;102336.53;2080835;28;20571;-81
2022/03/20 05:46:48;;;;;;;3.67;1.45;;;;;;;8.76;40.44;102334.19;2094880;28;20052;-81
2022/03/20 05:48:11;;;;;;;3.58;1.48;;;;;;;8.77;41.13;102340.34;2090349;28;20045;-81
2022/03/20 05:49:35;;;;;;;5.78;1.45;;;;;;;8.79;41.39;102350.13;2076138;28;20081;-82
2022/03/20 05:50:58;;;;;;;3.13;1.75;;;;;;;8.79;41.63;102347.47;2097064;28;20074;-82
2022/03/20 05:52:21;;;;;;;2.78;1.35;;;;;;;8.73;41.62;102327.84;2100995;28;20459;-81
2022/03/20 05:53:42;;;;;;;3.17;1.35;;;;;;;8.67;42.03;102339.00;2105983;28;20044;-81
2022/03/20 05:55:06;;;;;;;6.82;2.28;;;;;;;8.69;42.34;102331.19;2078213;28;20038;-82
2022/03/20 05:58:13;;;;;;;4.72;2.10;;;;;;;8.67;43.05;102344.25;2080570;28;20049;-82
2022/03/20 05:59:36;;;;;;;5.13;1.45;;;;;;;8.68;43.35;102342.53;2085196;28;20484;-82
2022/03/20 06:00:59;;;;;;;3.50;1.80;;;;;;;8.71;43.45;102337.44;2097948;28;20054;-82
2022/03/20 06:02:25;;;;;;;3.85;1.45;;;;;;;8.73;43.69;102339.28;2091939;28;20045;-82
2022/03/20 06:03:46;;;;;;;5.63;1.92;;;;;;;8.76;43.78;102330.66;2076647;28;20099;-82
2022/03/20 06:05:10;;;;;;;3.67;1.33;;;;;;;8.79;43.59;102339.59;2091366;28;20052;-82
2022/03/20 06:06:33;;;;;;;3.17;2.05;;;;;;;8.81;43.55;102337.03;2071520;28;20111;-82
2022/03/20 06:07:56;;;;;;;4.85;2.25;;;;;;;8.83;43.26;102337.09;2087895;28;20052;-82
2022/03/20 06:09:19;;;;;;;2.33;1.45;;;;;;;8.80;42.77;102336.13;2090611;28;20144;-82
2022/03/20 06:10:43;;;;;;;4.53;1.60;;;;;;;8.79;42.46;102336.94;2093830;28;20170;-82
2022/03/20 06:12:06;;;;;;;1.98;1.10;;;;;;;8.80;42.69;102335.22;2100621;28;20039;-82
2022/03/20 06:13:31;;;;;;;3.90;1.67;;;;;;;8.78;42.39;102329.00;2094219;28;20459;-83
2022/03/20 06:14:54;;;;;;;6.55;2.55;;;;;;;8.70;42.04;102318.09;2092154;28;20137;-82
2022/03/20 06:16:17;;;;;;;3.80;2.10;;;;;;;8.71;41.81;102325.16;2096075;28;20123;-82
2022/03/20 06:17:44;;;;;;;3.85;1.92;;;;;;;8.79;41.81;102317.66;2086646;28;20049;-82
2022/03/20 06:19:08;;;;;;;3.30;1.50;;;;;;;8.83;41.88;102324.84;2078510;28;20544;-82
2022/03/20 06:20:34;;;;;;;2.00;1.30;;;;;;;8.87;41.83;102324.16;2083828;28;20053;-82
2022/03/20 06:21:56;;;;;;;3.85;1.67;;;;;;;8.86;41.75;102319.72;2088488;28;20040;-82
2022/03/20 06:23:18;;;;;;;2.15;1.90;;;;;;;8.84;41.15;102321.38;2099771;28;20044;-82
2022/03/20 06:24:41;;;;;;;4.15;2.03;;;;;;;8.85;40.97;102317.03;2087082;28;20136;-82
2022/03/20 06:26:04;;;;;;;3.70;2.05;;;;;;;8.83;40.62;102321.31;2093382;28;20051;-82
2022/03/20 06:27:25;;;;;;;2.35;1.58;;;;;;;8.82;41.03;102301.06;2086244;28;20094;-83
2022/03/20 06:28:49;;;;;;;4.40;1.95;;;;;;;8.86;41.22;102306.53;2083628;28;20044;-83
2022/03/20 06:30:14;;;;;;;5.97;2.60;;;;;;;8.99;41.11;102294.88;2080462;28;20079;-83
2022/03/20 06:31:37;;;;;;;4.05;1.60;;;;;;;9.10;41.09;102310.34;2076322;28;20049;-82
2022/03/20 06:33:01;;;;;;;6.40;2.83;;;;;;;9.18;41.04;102301.06;2100476;28;20131;-81
2022/03/20 06:34:25;;;;;;;6.03;2.72;;;;;;;9.29;41.26;102304.19;2091645;28;20528;-83
2022/03/20 06:35:48;;;;;;;2.72;1.50;;;;;;;9.33;41.33;102300.84;2088085;28;20143;-82
2022/03/20 06:37:10;;;;;;;3.25;1.73;;;;;;;9.36;41.45;102310.63;2086301;28;20082;-82
2022/03/20 06:38:34;;;;;;;3.83;2.00;;;;;;;9.38;41.12;102311.63;2078121;28;20037;-82
2022/03/20 06:39:56;;;;;;;3.05;2.00;;;;;;;9.39;41.28;102302.84;2086262;28;20045;-82
2022/03/20 06:41:18;;;;;;;4.10;1.85;;;;;;;9.39;41.09;102292.31;2080376;28;20044;-82
2022/03/20 06:42:40;;;;;;;1.65;1.33;;;;;;;9.38;40.89;102306.34;2100223;28;20108;-82
2022/03/20 06:44:05;;;;;;;1.60;1.27;;;;;;;9.34;40.76;102297.38;2097691;28;20652;-82
2022/03/20 06:45:27;;;;;;;3.47;1.75;;;;;;;9.27;40.46;102302.31;2103149;28;20044;-82
2022/03/20 06:46:50;;;;;;;1.92;1.23;;;;;;;9.26;40.28;102308.41;2094510;28;20081;-82
2022/03/20 06:48:13;;;;;;;3.78;1.40;;;;;;;9.29;39.86;102311.19;2100213;28;20073;-82
2022/03/20 06:49:35;;;;;;;8.20;4.28;;;;;;;9.19;39.66;102301.94;2094179;28;20317;-81
2022/03/20 06:50:59;;;;;;;11.30;5.55;;;;;;;9.16;40.10;102299.19;2081020;28;20397;-82
2022/03/20 06:52:22;;;;;;;10.98;5.15;;;;;;;9.25;39.96;102299.63;2090833;28;20040;-82
2022/03/20 06:53:44;;;;;;;10.82;2.92;;;;;;;9.39;39.98;102289.66;2092634;28;20048;-82